Home PIREPS Pireps

Flight WIN1072

  • Submitted By: Carl Hermans
  • Departure Airport: Oostende (EBOS)
  • Arrival Airport: Basel-Mulhouse (LFSB)
  • Aircraft: YOUR CHOICE (YC)
  • Flight Time: 00.56
  • Date Submitted: 03/10/2017
  • Status: Accepted
Flight Details
Gross Revenue:
(25 load / € 0.00 per unit
€ 0.00
Fuel Cost:
(2075 fuel used @ 5.1 / unit)
€ 10,582.50

Additional Log Information:

View Log

Aircraft Used in flight is x737-800_v503 Brussels Airlines
21:57 Brakes are On
21:57 Brakes are Released
21:58 You Took off @ 189 Knots and Flaps at Position 3
Departure Weather
EBOS 031920Z 29012KT 9999 FEW032 BKN045 14/06 Q1025 NOSIGrn
21:58 Landing Gear Up @ 193 Knots and 20 Feet
21:59 Below 10000 feet you are not allowed to go over 250 knots
21:59 You exceeded maximum bank angle
22:01 Above FL100 you need to switch of the landing lights
22:45 Landing Gear Down @ 162 Knots and 2860 Feet
22:49 You Landed @ 153 Knots and with -650 Vertical Speed
Arrival Weather
LFSB 032030Z VRB03KT 9999 FEW046 08/07 Q1026 NOSIGrn
22:49 Your Landing was very hard
22:50 Brakes are On
22:50 Brakes are Released
22:54 Brakes are On
22:54 Brakes are Released
22:54 Brakes are On
22:54 Brussels Bel-Track1.0.1.2

Route Map

Corporate About Us Our Team Vacancies Information Fleet Route Network Rules and Regulations Operations Flight Schedules Event Center Tours Partners IVAO Vatsim Acars dev FSCB

fb Users Online Belgium Roger Wijns, United Kingdom David Chenery,
4 Pilot(s) and 227 Guest(s) Online
CMS by phpVMS - Design by Crazycreatives.com - Copyright © 2018 - Brussels Airlines Virtual